createdAt,value
2018-11-28T00:00:21.098Z,98789.87
2018-11-28T00:02:50.060Z,98794.49
2018-11-28T00:05:18.707Z,98799.25
2018-11-28T00:07:47.235Z,98808.62
2018-11-28T00:10:15.835Z,98808.39
2018-11-28T00:12:44.323Z,98820.33
2018-11-28T00:15:13.875Z,98826.70
2018-11-28T00:17:42.480Z,98825.39
2018-11-28T00:20:13.885Z,98816.41
2018-11-28T00:22:42.775Z,98809.67
2018-11-28T00:25:12.197Z,98817.38
2018-11-28T00:27:40.804Z,98820.83
2018-11-28T00:30:13.070Z,98817.85
2018-11-28T00:32:41.812Z,98803.78
2018-11-28T00:35:11.932Z,98804.95
2018-11-28T00:37:40.475Z,98806.69
2018-11-28T00:40:10.522Z,98806.36
2018-11-28T00:42:39.130Z,98814.44
2018-11-28T00:45:18.811Z,98813.97
2018-11-28T00:47:47.406Z,98805.69
2018-11-28T00:50:19.125Z,98822.51
2018-11-28T00:52:47.751Z,98828.67
2018-11-28T00:55:17.256Z,98826.23
2018-11-28T00:57:46.053Z,98836.94
2018-11-28T01:00:22.945Z,98839.55
2018-11-28T01:02:51.812Z,98848.83
2018-11-28T01:05:20.358Z,98843.27
2018-11-28T01:07:50.728Z,98841.13
2018-11-28T01:10:20.476Z,98837.78
2018-11-28T01:12:49.635Z,98848.50
2018-11-28T01:15:18.848Z,98852.64
2018-11-28T01:17:47.381Z,98852.91
2018-11-28T01:20:18.163Z,98852.23
2018-11-28T01:22:46.732Z,98853.44
2018-11-28T01:25:17.311Z,98854.11
2018-11-28T01:27:45.934Z,98852.02
2018-11-28T01:30:18.425Z,98851.44
2018-11-28T01:32:47.088Z,98854.16
2018-11-28T01:35:17.546Z,98864.97
2018-11-28T01:37:46.136Z,98858.70
2018-11-28T01:40:15.769Z,98863.55
2018-11-28T01:42:44.264Z,98858.02
2018-11-28T01:45:14.067Z,98856.81
2018-11-28T01:47:42.890Z,98860.28
2018-11-28T01:50:14.444Z,98865.72
2018-11-28T01:52:42.941Z,98867.16
2018-11-28T01:55:12.380Z,98861.93
2018-11-28T01:57:40.871Z,98875.23
2018-11-28T02:00:14.689Z,98870.96
2018-11-28T02:02:43.284Z,98865.72
2018-11-28T02:05:12.551Z,98866.31
2018-11-28T02:07:41.059Z,98877.28
2018-11-28T02:10:13.765Z,98874.80
2018-11-28T02:12:42.575Z,98879.05
2018-11-28T02:15:16.256Z,98880.15
2018-11-28T02:17:45.893Z,98878.59
2018-11-28T02:20:15.756Z,98884.87
2018-11-28T02:22:44.310Z,98875.41
2018-11-28T02:25:14.760Z,98878.27
2018-11-28T02:27:43.657Z,98881.47
2018-11-28T02:30:14.546Z,98885.01
2018-11-28T02:32:43.200Z,98884.33
2018-11-28T02:35:12.732Z,98888.86
2018-11-28T02:37:41.478Z,98897.39
2018-11-28T02:40:15.015Z,98904.84
2018-11-28T02:42:43.673Z,98903.68
2018-11-28T02:45:15.971Z,98906.42
2018-11-28T02:47:44.499Z,98917.11
2018-11-28T02:50:13.168Z,98916.14
2018-11-28T02:52:41.967Z,98927.30
2018-11-28T02:55:18.643Z,98931.13
2018-11-28T02:57:48.312Z,98934.92
2018-11-28T03:00:22.697Z,98940.15
2018-11-28T03:02:51.299Z,98938.25
2018-11-28T03:05:19.907Z,98944.41
2018-11-28T03:07:48.456Z,98946.55
2018-11-28T03:10:21.754Z,98948.44
2018-11-28T03:12:50.358Z,98948.69
2018-11-28T03:15:24.926Z,98956.64
2018-11-28T03:17:53.434Z,98954.13
2018-11-28T03:20:21.971Z,98955.34
2018-11-28T03:22:50.463Z,98957.36
2018-11-28T03:25:19.069Z,98958.41
2018-11-28T03:27:47.578Z,98960.66
2018-11-28T03:30:16.690Z,98966.00
2018-11-28T03:32:45.208Z,98968.98
2018-11-28T03:35:15.669Z,98969.45
2018-11-28T03:37:44.342Z,98970.16
2018-11-28T03:40:13.349Z,98975.97
2018-11-28T03:42:42.220Z,98971.24
2018-11-28T03:45:14.545Z,98973.73
2018-11-28T03:47:43.714Z,98973.14
2018-11-28T03:50:13.249Z,98970.75
2018-11-28T03:52:41.770Z,98981.19
2018-11-28T03:55:13.380Z,98978.36
2018-11-28T03:57:42.136Z,98991.03
2018-11-28T04:00:14.004Z,98988.55
2018-11-28T04:02:42.536Z,98991.88
2018-11-28T04:05:11.649Z,98997.09
2018-11-28T04:07:40.212Z,99002.44
2018-11-28T04:10:10.147Z,98997.45
2018-11-28T04:12:39.007Z,98987.11
2018-11-28T04:15:11.671Z,98991.02
2018-11-28T04:17:40.203Z,98989.62
2018-11-28T04:20:11.564Z,98993.28
2018-11-28T04:22:40.087Z,98997.07
2018-11-28T04:25:09.626Z,98989.03
2018-11-28T04:27:38.179Z,98984.52
2018-11-28T04:30:11.719Z,98982.84
2018-11-28T04:32:40.270Z,98986.06
2018-11-28T04:35:10.389Z,98990.20
2018-11-28T04:37:38.928Z,98989.61
2018-11-28T04:47:11.256Z,98998.70
2018-11-28T04:49:39.726Z,99000.39
2018-11-28T04:52:08.256Z,99000.27
2018-11-28T04:54:36.736Z,99006.10
2018-11-28T04:57:05.382Z,99011.31
2018-11-28T04:59:33.950Z,99008.10
2018-11-28T05:02:02.454Z,99006.47
2018-11-28T05:04:30.922Z,99006.58
2018-11-28T05:07:30.941Z,99013.33
2018-11-28T05:09:59.772Z,99013.45
2018-11-28T05:12:28.389Z,99014.75
2018-11-28T05:14:56.890Z,99013.08
2018-11-28T05:17:25.414Z,99015.55
2018-11-28T05:19:53.891Z,99016.64
2018-11-28T05:22:22.350Z,99016.02
2018-11-28T05:24:50.830Z,99020.50
2018-11-28T05:27:19.300Z,99023.66
2018-11-28T05:29:47.883Z,99024.49
2018-11-28T05:32:16.344Z,99033.44
2018-11-28T05:34:44.840Z,99023.77
2018-11-28T05:37:13.321Z,99024.79
2018-11-28T05:39:41.843Z,99032.30
2018-11-28T05:42:10.323Z,99036.66
2018-11-28T05:44:38.827Z,99026.64
2018-11-28T05:47:07.390Z,99036.84
2018-11-28T05:49:35.909Z,99032.75
2018-11-28T05:52:04.389Z,99041.41
2018-11-28T05:54:32.923Z,99042.52
2018-11-28T05:57:01.486Z,99041.36
2018-11-28T05:59:30.007Z,99047.14
2018-11-28T06:01:58.474Z,99038.84
2018-11-28T06:04:27.001Z,99043.42
2018-11-28T06:06:55.479Z,99046.99
2018-11-28T06:09:23.996Z,99044.37
2018-11-28T06:11:52.485Z,99055.98
2018-11-28T06:14:20.964Z,99052.64
2018-11-28T06:16:49.436Z,99059.53
2018-11-28T06:19:17.965Z,99062.72
2018-11-28T06:21:46.475Z,99060.04
2018-11-28T06:24:14.975Z,99054.22
2018-11-28T06:26:43.459Z,99056.25
2018-11-28T06:29:11.986Z,99056.16
2018-11-28T06:31:40.488Z,99066.11
2018-11-28T06:34:09.006Z,99066.36
2018-11-28T06:36:37.492Z,99073.35
2018-11-28T06:39:08.715Z,99070.16
2018-11-28T06:41:37.462Z,99073.48
2018-11-28T06:44:06.015Z,99073.85
2018-11-28T06:46:34.500Z,99069.56
2018-11-28T06:49:03.023Z,99069.92
2018-11-28T06:51:31.480Z,99076.70
2018-11-28T06:53:59.971Z,99067.78
2018-11-28T06:56:28.472Z,99076.64
2018-11-28T06:58:56.930Z,99073.55
2018-11-28T07:01:25.448Z,99086.95
2018-11-28T07:03:53.959Z,99087.92
2018-11-28T07:06:22.548Z,99087.68
2018-11-28T07:08:51.055Z,99087.08
2018-11-28T07:11:19.585Z,99087.33
2018-11-28T07:13:48.131Z,99092.29
2018-11-28T07:16:16.610Z,99094.13
2018-11-28T07:18:56.395Z,99089.13
2018-11-28T07:21:25.562Z,99087.41
2018-11-28T07:23:54.087Z,99088.94
2018-11-28T07:26:22.630Z,99094.50
2018-11-28T07:28:51.137Z,99095.42
2018-11-28T07:31:19.680Z,99099.36
2018-11-28T07:33:48.257Z,99102.52
2018-11-28T07:36:16.898Z,99111.60
2018-11-28T07:38:45.488Z,99110.92
2018-11-28T07:41:14.333Z,99104.90
2018-11-28T07:43:43.202Z,99116.75
2018-11-28T07:46:11.761Z,99117.57
2018-11-28T07:48:40.277Z,99126.55
2018-11-28T07:51:08.953Z,99125.03
2018-11-28T07:53:37.547Z,99126.61
2018-11-28T07:56:06.291Z,99128.48
2018-11-28T07:58:34.863Z,99133.27
2018-11-28T08:01:03.446Z,99132.16
2018-11-28T08:03:31.992Z,99131.45
2018-11-28T08:06:00.554Z,99126.31
2018-11-28T08:08:29.375Z,99110.21
2018-11-28T08:10:57.884Z,99117.56
2018-11-28T08:13:26.464Z,99121.84
2018-11-28T08:15:54.925Z,99127.36
2018-11-28T08:18:23.479Z,99124.73
2018-11-28T08:20:52.043Z,99126.05
2018-11-28T08:23:20.547Z,99130.47
2018-11-28T08:25:49.043Z,99135.97
2018-11-28T08:28:17.580Z,99134.78
2018-11-28T08:30:46.076Z,99131.49
2018-11-28T08:34:38.946Z,99137.36
2018-11-28T08:37:07.779Z,99143.03
2018-11-28T08:39:36.308Z,99154.81
2018-11-28T08:42:04.840Z,99146.25
2018-11-28T08:44:33.321Z,99151.78
2018-11-28T08:47:01.814Z,99140.75
2018-11-28T08:49:30.301Z,99138.73
2018-11-28T08:51:58.867Z,99144.93
2018-11-28T08:54:27.333Z,99141.50
2018-11-28T08:56:56.248Z,99148.80
2018-11-28T08:59:24.760Z,99147.08
2018-11-28T09:01:53.307Z,99154.61
2018-11-28T09:04:21.791Z,99148.16
2018-11-28T09:06:50.319Z,99159.23
2018-11-28T09:10:47.915Z,99164.23
2018-11-28T09:13:16.450Z,99160.93
2018-11-28T09:15:44.988Z,99160.21
2018-11-28T09:18:13.519Z,99161.71
2018-11-28T09:20:42.015Z,99168.05
2018-11-28T09:23:10.552Z,99172.61
2018-11-28T09:25:39.084Z,99163.99
2018-11-28T09:28:07.669Z,99168.09
2018-11-28T09:30:36.236Z,99166.23
2018-11-28T09:33:05.208Z,99174.57
2018-11-28T09:35:33.691Z,99177.61
2018-11-28T09:38:02.238Z,99181.41
2018-11-28T09:40:30.773Z,99180.56
2018-11-28T09:42:59.951Z,99181.16
2018-11-28T09:45:28.589Z,99178.55
2018-11-28T09:47:57.156Z,99176.59
2018-11-28T09:50:26.569Z,99167.97
2018-11-28T09:52:55.194Z,99168.13
2018-11-28T09:55:28.467Z,99173.14
2018-11-28T09:57:57.760Z,99176.95
2018-11-28T10:00:27.284Z,99173.50
2018-11-28T10:02:58.823Z,99181.72
2018-11-28T10:05:31.308Z,99170.89
2018-11-28T10:07:59.973Z,99170.53
2018-11-28T10:10:28.526Z,99168.41
2018-11-28T10:12:57.097Z,99159.78
2018-11-28T10:15:26.431Z,99170.23
2018-11-28T10:17:55.004Z,99163.92
2018-11-28T10:20:23.559Z,99164.26
2018-11-28T10:22:52.856Z,99160.95
2018-11-28T10:25:22.256Z,99162.81
2018-11-28T10:27:56.940Z,99156.25
2018-11-28T10:30:29.168Z,99160.65
2018-11-28T10:32:56.567Z,99157.02
2018-11-28T10:35:25.162Z,99156.09
2018-11-28T10:37:53.668Z,99166.00
2018-11-28T10:40:23.309Z,99171.55
2018-11-28T10:42:52.983Z,99167.00
2018-11-28T10:45:22.695Z,99157.69
2018-11-28T10:47:51.296Z,99158.84
2018-11-28T10:50:19.877Z,99154.84
2018-11-28T10:52:48.363Z,99157.10
2018-11-28T10:55:19.771Z,99155.76
2018-11-28T10:57:48.347Z,99157.11
2018-11-28T11:00:23.211Z,99151.98
2018-11-28T11:02:56.946Z,99154.31
2018-11-28T11:05:30.560Z,99153.20
2018-11-28T11:08:04.304Z,99153.97
2018-11-28T11:10:37.973Z,99158.45
2018-11-28T11:13:12.106Z,99159.02
2018-11-28T11:15:40.626Z,99154.98
2018-11-28T11:18:10.945Z,99162.59
2018-11-28T11:20:39.019Z,99157.77
2018-11-28T11:23:08.681Z,99160.38
2018-11-28T11:25:37.271Z,99158.52
2018-11-28T11:28:06.299Z,99162.06
2018-11-28T11:30:34.854Z,99152.28
2018-11-28T11:33:03.376Z,99152.00
2018-11-28T11:35:32.002Z,99152.30
2018-11-28T11:38:00.506Z,99154.02
2018-11-28T11:40:29.068Z,99150.14
2018-11-28T11:42:57.562Z,99150.86
2018-11-28T11:45:26.096Z,99147.11
2018-11-28T11:47:54.620Z,99136.67
2018-11-28T11:50:23.157Z,99143.97
2018-11-28T11:52:51.676Z,99151.16
2018-11-28T11:55:20.657Z,99146.86
2018-11-28T11:57:49.784Z,99145.54
2018-11-28T12:00:20.432Z,99139.81
2018-11-28T12:03:10.932Z,99141.82
2018-11-28T12:05:40.871Z,99138.97
2018-11-28T12:08:09.422Z,99136.27
2018-11-28T12:10:37.998Z,99131.78
2018-11-28T12:13:06.576Z,99139.61
2018-11-28T12:15:35.770Z,99142.17
2018-11-28T12:18:03.759Z,99139.52
2018-11-28T12:20:36.985Z,99139.75
2018-11-28T12:23:05.575Z,99140.78
2018-11-28T12:25:34.155Z,99136.44
2018-11-28T12:28:02.658Z,99134.47
2018-11-28T12:30:31.214Z,99141.59
2018-11-28T12:32:59.734Z,99135.58
2018-11-28T12:35:28.267Z,99133.16
2018-11-28T12:37:56.795Z,99133.11
2018-11-28T12:40:25.351Z,99133.33
2018-11-28T12:42:53.899Z,99129.06
2018-11-28T12:45:22.517Z,99137.40
2018-11-28T12:47:51.084Z,99130.87
2018-11-28T12:50:23.789Z,99134.73
2018-11-28T12:52:53.024Z,99132.66
2018-11-28T12:55:22.053Z,99128.45
2018-11-28T12:57:51.312Z,99131.41
2018-11-28T13:00:21.179Z,99130.51
2018-11-28T13:02:49.828Z,99130.46
2018-11-28T13:05:20.419Z,99121.81
2018-11-28T13:07:48.955Z,99124.87
2018-11-28T13:10:18.771Z,99127.28
2018-11-28T13:12:48.158Z,99122.72
2018-11-28T13:15:17.747Z,99118.20
2018-11-28T13:17:46.295Z,99112.88
2018-11-28T13:20:16.888Z,99105.80
2018-11-28T13:22:46.308Z,99105.62
2018-11-28T13:25:20.217Z,99107.63
2018-11-28T13:27:48.751Z,99107.44
2018-11-28T13:30:18.281Z,99102.48
2018-11-28T13:32:47.295Z,99116.30
2018-11-28T13:35:19.958Z,99103.72
2018-11-28T13:37:49.655Z,99116.56
2018-11-28T13:40:19.011Z,99104.55
2018-11-28T13:42:47.552Z,99109.92
2018-11-28T13:45:19.191Z,99105.98
2018-11-28T13:47:56.624Z,99111.78
2018-11-28T13:50:27.036Z,99115.20
2018-11-28T13:52:56.240Z,99116.57
2018-11-28T13:55:43.836Z,99113.94
2018-11-28T13:57:58.923Z,99118.88
2018-11-28T14:00:27.526Z,99116.23
2018-11-28T14:02:56.144Z,99113.39
2018-11-28T14:05:24.669Z,99113.28
2018-11-28T14:07:54.416Z,99113.69
2018-11-28T14:10:23.163Z,99111.88
2018-11-28T14:12:52.655Z,99104.83
2018-11-28T14:15:23.239Z,99116.09
2018-11-28T14:18:13.911Z,99102.48
2018-11-28T14:20:42.461Z,99105.81
2018-11-28T14:23:11.387Z,99112.94
2018-11-28T14:25:40.277Z,99112.98
2018-11-28T14:28:10.360Z,99113.12
2018-11-28T14:30:39.271Z,99113.96
2018-11-28T14:33:07.878Z,99122.72
2018-11-28T14:35:36.467Z,99122.11
2018-11-28T14:38:05.144Z,99117.98
2018-11-28T14:40:33.924Z,99119.21
2018-11-28T14:43:02.518Z,99124.75
2018-11-28T14:45:31.724Z,99120.31
2018-11-28T14:48:01.031Z,99121.81
2018-11-28T14:51:54.408Z,99127.98
2018-11-28T14:54:22.947Z,99129.69
2018-11-28T14:56:51.513Z,99132.81
2018-11-28T14:59:20.050Z,99139.52
2018-11-28T15:01:48.977Z,99139.91
2018-11-28T15:04:17.237Z,99144.12
2018-11-28T15:06:52.347Z,99142.92
2018-11-28T15:09:26.622Z,99140.02
2018-11-28T15:11:55.340Z,99133.98
2018-11-28T15:14:23.908Z,99136.47
2018-11-28T15:16:52.847Z,99138.10
2018-11-28T15:19:21.097Z,99133.88
2018-11-28T15:21:49.639Z,99137.11
2018-11-28T15:24:18.209Z,99140.62
2018-11-28T15:26:46.848Z,99142.50
2018-11-28T15:29:15.406Z,99145.16
2018-11-28T15:31:43.961Z,99151.28
2018-11-28T15:34:12.548Z,99145.25
2018-11-28T15:36:41.066Z,99143.17
2018-11-28T15:39:10.504Z,99146.03
2018-11-28T15:41:39.262Z,99141.66
2018-11-28T15:44:07.896Z,99139.55
2018-11-28T15:46:36.554Z,99141.84
2018-11-28T15:49:05.169Z,99142.20
2018-11-28T15:51:33.674Z,99147.92
2018-11-28T15:54:02.225Z,99144.12
2018-11-28T15:56:30.712Z,99147.45
2018-11-28T15:58:59.305Z,99147.21
2018-11-28T16:01:27.799Z,99151.17
2018-11-28T16:03:56.437Z,99150.57
2018-11-28T16:06:25.032Z,99157.49
2018-11-28T16:08:54.825Z,99155.28
2018-11-28T16:11:24.467Z,99153.97
2018-11-28T16:13:53.072Z,99158.80
2018-11-28T16:16:21.599Z,99153.95
2018-11-28T16:18:50.133Z,99155.53
2018-11-28T16:21:18.719Z,99158.02
2018-11-28T16:23:47.327Z,99159.70
2018-11-28T16:26:15.863Z,99151.60
2018-11-28T16:28:44.424Z,99153.85
2018-11-28T16:31:12.951Z,99155.77
2018-11-28T16:33:41.588Z,99161.50
2018-11-28T16:36:10.105Z,99160.06
2018-11-28T16:38:38.636Z,99158.15
2018-11-28T16:41:07.139Z,99161.13
2018-11-28T16:43:35.668Z,99161.73
2018-11-28T16:46:04.224Z,99166.16
2018-11-28T16:48:33.111Z,99171.16
2018-11-28T16:51:01.649Z,99170.33
2018-11-28T16:53:30.248Z,99170.59
2018-11-28T16:55:58.772Z,99168.57
2018-11-28T16:58:27.279Z,99170.75
2018-11-28T17:00:55.773Z,99170.67
2018-11-28T17:03:24.330Z,99170.77
2018-11-28T17:05:52.840Z,99168.80
2018-11-28T17:08:21.433Z,99179.25
2018-11-28T17:10:49.935Z,99173.92
2018-11-28T17:13:18.519Z,99170.24
2018-11-28T17:15:47.026Z,99176.11
2018-11-28T17:18:15.540Z,99176.84
2018-11-28T17:20:44.308Z,99181.16
2018-11-28T17:23:12.808Z,99177.56
2018-11-28T17:25:41.343Z,99180.78
2018-11-28T17:28:09.898Z,99173.31
2018-11-28T17:30:38.403Z,99174.25
2018-11-28T17:33:07.324Z,99181.77
2018-11-28T17:35:35.819Z,99175.96
2018-11-28T17:38:04.315Z,99176.81
2018-11-28T17:40:32.887Z,99176.81
2018-11-28T17:43:01.397Z,99180.52
2018-11-28T17:45:30.559Z,99184.80
2018-11-28T17:47:59.112Z,99189.22
2018-11-28T17:50:27.960Z,99190.75
2018-11-28T17:53:10.955Z,99185.64
2018-11-28T17:55:46.358Z,99183.53
2018-11-28T17:58:14.938Z,99191.59
2018-11-28T18:00:43.599Z,99188.30
2018-11-28T18:03:12.439Z,99191.00
2018-11-28T18:05:48.005Z,99194.58
2018-11-28T18:08:16.587Z,99196.02
2018-11-28T18:10:45.491Z,99190.19
2018-11-28T18:13:15.150Z,99190.78
2018-11-28T18:15:47.293Z,99189.60
2018-11-28T18:18:17.372Z,99181.63
2018-11-28T18:20:50.196Z,99181.75
2018-11-28T18:23:14.492Z,99172.86
2018-11-28T18:25:44.043Z,99173.45
2018-11-28T18:28:12.783Z,99174.88
2018-11-28T18:30:41.339Z,99172.73
2018-11-28T18:33:11.120Z,99182.84
2018-11-28T18:35:39.673Z,99183.55
2018-11-28T18:38:08.192Z,99174.28
2018-11-28T18:40:36.864Z,99175.37
2018-11-28T18:43:06.022Z,99178.20
2018-11-28T18:45:36.476Z,99175.23
2018-11-28T18:48:04.513Z,99174.28
2018-11-28T18:50:33.140Z,99176.08
2018-11-28T18:53:02.332Z,99170.34
2018-11-28T18:55:31.258Z,99166.09
2018-11-28T18:57:59.727Z,99171.06
2018-11-28T19:00:28.661Z,99166.34
2018-11-28T19:02:57.307Z,99171.91
2018-11-28T19:05:44.782Z,99175.83
2018-11-28T19:08:13.286Z,99176.54
2018-11-28T19:10:41.841Z,99177.98
2018-11-28T19:13:10.400Z,99169.05
2018-11-28T19:15:40.054Z,99175.48
2018-11-28T19:18:08.643Z,99175.23
2018-11-28T19:20:37.163Z,99178.56
2018-11-28T19:23:05.939Z,99175.81
2018-11-28T19:25:34.512Z,99178.68
2018-11-28T19:28:03.021Z,99178.30
2018-11-28T19:30:33.999Z,99177.95
2018-11-28T19:33:02.556Z,99183.04
2018-11-28T19:35:31.123Z,99171.41
2018-11-28T19:37:59.792Z,99162.64
2018-11-28T19:40:32.256Z,99167.16
2018-11-28T19:43:01.104Z,99170.11
2018-11-28T19:45:29.703Z,99173.92
2018-11-28T19:47:58.174Z,99169.05
2018-11-28T19:50:30.424Z,99165.38
2018-11-28T19:52:58.936Z,99165.97
2018-11-28T19:55:27.484Z,99172.23
2018-11-28T19:57:56.012Z,99169.62
2018-11-28T20:00:24.605Z,99170.45
2018-11-28T20:02:53.125Z,99171.30
2018-11-28T20:05:21.753Z,99171.05
2018-11-28T20:07:51.591Z,99172.83
2018-11-28T20:10:21.371Z,99159.40
2018-11-28T20:12:50.026Z,99159.53
2018-11-28T20:15:22.298Z,99155.26
2018-11-28T20:17:51.224Z,99146.13
2018-11-28T20:20:19.941Z,99146.84
2018-11-28T20:22:48.490Z,99153.36
2018-11-28T20:25:18.380Z,99164.38
2018-11-28T20:27:49.409Z,99160.23
2018-11-28T20:30:20.803Z,99162.23
2018-11-28T20:32:49.339Z,99165.45
2018-11-28T20:35:17.894Z,99168.04
2018-11-28T20:37:46.570Z,99161.25
2018-11-28T20:40:17.279Z,99159.12
2018-11-28T20:42:47.147Z,99158.52
2018-11-28T20:45:16.249Z,99159.61
2018-11-28T20:47:45.012Z,99154.59
2018-11-28T20:50:15.398Z,99161.73
2018-11-28T20:52:45.955Z,99158.88
2018-11-28T20:55:14.481Z,99154.59
2018-11-28T20:57:43.020Z,99167.41
2018-11-28T21:00:16.173Z,99165.73
2018-11-28T21:02:44.792Z,99167.88
2018-11-28T21:05:13.322Z,99164.80
2018-11-28T21:07:41.871Z,99158.62
2018-11-28T21:10:17.884Z,99153.05
2018-11-28T21:12:46.495Z,99151.16
2018-11-28T21:15:15.090Z,99151.39
2018-11-28T21:17:44.474Z,99156.23
2018-11-28T21:20:15.943Z,99156.11
2018-11-28T21:22:46.237Z,99151.73
2018-11-28T21:25:14.749Z,99147.80
2018-11-28T21:27:43.275Z,99148.04
2018-11-28T21:30:14.283Z,99150.19
2018-11-28T21:32:43.448Z,99145.17
2018-11-28T21:35:17.028Z,99151.48
2018-11-28T21:37:45.587Z,99148.73
2018-11-28T21:40:14.198Z,99153.81
2018-11-28T21:42:42.800Z,99156.31
2018-11-28T21:45:16.587Z,99160.11
2018-11-28T21:47:45.777Z,99159.82
2018-11-28T21:50:16.159Z,99156.14
2018-11-28T21:52:44.788Z,99153.39
2018-11-28T21:55:21.715Z,99151.73
2018-11-28T21:57:50.513Z,99152.20
2018-11-28T22:00:22.110Z,99143.91
2018-11-28T22:02:50.667Z,99145.13
2018-11-28T22:05:19.231Z,99149.85
2018-11-28T22:07:47.907Z,99154.70
2018-11-28T22:10:18.359Z,99161.41
2018-11-28T22:12:46.977Z,99169.13
2018-11-28T22:15:16.459Z,99175.14
2018-11-28T22:17:47.390Z,99171.23
2018-11-28T22:20:16.009Z,99176.71
2018-11-28T22:22:46.828Z,99188.53
2018-11-28T22:25:25.962Z,99202.61
2018-11-28T22:27:54.686Z,99199.06
2018-11-28T22:30:26.420Z,99200.41
2018-11-28T22:32:55.059Z,99198.02
2018-11-28T22:35:24.040Z,99185.61
2018-11-28T22:37:52.589Z,99186.65
2018-11-28T22:40:22.431Z,99188.03
2018-11-28T22:42:51.030Z,99197.38
2018-11-28T22:45:21.583Z,99190.59
2018-11-28T22:47:50.155Z,99191.64
2018-11-28T22:50:18.702Z,99198.88
2018-11-28T22:52:47.254Z,99199.14
2018-11-28T22:55:16.352Z,99190.29
2018-11-28T22:57:44.879Z,99197.31
2018-11-28T23:00:27.342Z,99200.33
2018-11-28T23:03:00.402Z,99203.52
2018-11-28T23:05:33.008Z,99199.72
2018-11-28T23:08:02.435Z,99179.89
2018-11-28T23:10:31.010Z,99174.91
2018-11-28T23:12:59.535Z,99156.46
2018-11-28T23:15:28.069Z,99146.64
2018-11-28T23:17:56.607Z,99152.20
2018-11-28T23:20:25.204Z,99157.56
2018-11-28T23:22:53.707Z,99149.97
2018-11-28T23:25:22.359Z,99139.05
2018-11-28T23:27:51.215Z,99123.28
2018-11-28T23:30:20.665Z,99116.07
2018-11-28T23:32:50.114Z,99115.23
2018-11-28T23:35:19.059Z,99120.10
2018-11-28T23:37:48.738Z,99129.55
2018-11-28T23:40:22.318Z,99146.87
2018-11-28T23:42:51.411Z,99147.91
2018-11-28T23:45:20.214Z,99161.67
2018-11-28T23:47:49.114Z,99156.08
2018-11-28T23:50:24.774Z,99154.41
2018-11-28T23:52:54.004Z,99158.69
2018-11-28T23:55:25.134Z,99155.73
2018-11-28T23:57:53.971Z,99152.41
